Time;durP1;ratioP1;P1;durP2;ratioP2;P2;SDS_P1;SDS_P2;PMS_P1;PMS_P2;Temp;Humidity;BMP_temperature;BMP_pressure;BME280_temperature;BME280_humidity;BME280_pressure;Samples;Min_cycle;Max_cycle;Signal;HPM_P1;HPM_P2
2021/05/16 00:01:41;;;;;;;;;62.75;51.50;;;;;16.60;75.15;100914.63;4916946;29;11725;-78
2021/05/16 00:04:37;;;;;;;;;65.75;53.75;;;;;16.70;74.72;100905.69;4916768;29;11633;-77
2021/05/16 00:07:32;;;;;;;;;59.00;49.50;;;;;16.38;76.12;100903.00;4909783;29;11661;-77
2021/05/16 00:10:28;;;;;;;;;62.50;51.00;;;;;16.22;76.75;100913.41;4910539;29;11517;-78
2021/05/16 00:13:24;;;;;;;;;61.25;50.00;;;;;16.06;77.49;100915.41;4936073;29;11620;-77
2021/05/16 00:16:35;;;;;;;;;56.00;46.50;;;;;16.07;77.84;100915.03;4897350;29;11591;-78
2021/05/16 00:19:32;;;;;;;;;59.00;48.75;;;;;16.01;78.25;100916.47;4898022;29;11627;-77
2021/05/16 00:22:27;;;;;;;;;62.50;50.75;;;;;15.90;78.33;100915.44;4896373;29;11676;-77
2021/05/16 00:24:55;;;;;;;;;60.75;48.25;;;;;16.10;77.62;100907.91;4911018;29;11641;-78
2021/05/16 00:27:51;;;;;;;;;62.75;50.50;;;;;16.14;77.07;100900.47;4915253;29;11644;-78
2021/05/16 00:30:47;;;;;;;;;60.75;50.50;;;;;16.18;76.92;100901.34;4916498;29;11596;-78
2021/05/16 00:33:43;;;;;;;;;61.50;51.00;;;;;16.30;76.40;100914.38;4916705;29;11613;-78
2021/05/16 00:36:39;;;;;;;;;61.25;49.75;;;;;16.20;76.33;100912.97;4915075;29;11609;-78
2021/05/16 00:39:34;;;;;;;;;62.25;49.75;;;;;16.29;75.75;100916.34;4916766;29;11335;-77
2021/05/16 00:42:30;;;;;;;;;65.00;52.75;;;;;16.16;75.53;100920.41;4916583;29;11625;-77
2021/05/16 00:45:28;;;;;;;;;75.25;56.25;;;;;16.04;75.91;100915.78;4922209;29;11594;-77
2021/05/16 00:48:23;;;;;;;;;68.75;54.25;;;;;15.94;76.68;100904.34;4935540;29;11602;-77
2021/05/16 00:51:19;;;;;;;;;69.75;52.75;;;;;16.00;76.67;100905.69;4935399;29;12485;-77
2021/05/16 00:54:15;;;;;;;;;66.25;51.25;;;;;15.92;76.52;100906.69;4935407;29;12421;-78
2021/05/16 00:56:56;;;;;;;;;60.00;48.00;;;;;15.97;76.38;100903.66;4935263;29;11658;-77
2021/05/16 00:59:52;;;;;;;;;58.75;48.25;;;;;15.92;76.94;100903.91;4924107;29;11600;-77
2021/05/16 01:02:47;;;;;;;;;66.50;52.50;;;;;16.18;75.64;100898.56;4916234;29;11630;-77
2021/05/16 01:05:43;;;;;;;;;68.00;54.00;;;;;16.09;75.66;100901.53;4915511;29;11616;-77
2021/05/16 01:08:39;;;;;;;;;67.75;53.50;;;;;15.71;76.97;100893.84;4916247;29;11615;-77
2021/05/16 01:11:35;;;;;;;;;66.50;52.25;;;;;15.63;77.50;100903.19;4921602;29;11678;-78
2021/05/16 01:14:37;;;;;;;;;68.75;54.50;;;;;15.54;78.00;100911.72;4921769;29;11609;-78
2021/05/16 01:17:33;;;;;;;;;72.00;57.50;;;;;15.22;79.65;100916.44;4933670;29;11836;-78
2021/05/16 01:20:32;;;;;;;;;72.75;57.25;;;;;15.12;80.68;100914.19;4935100;29;11608;-78
2021/05/16 01:23:04;;;;;;;;;74.75;59.50;;;;;15.12;80.84;100905.84;4935430;29;11665;-77
2021/05/16 01:25:48;;;;;;;;;78.75;59.25;;;;;15.14;80.71;100906.28;4935089;29;11695;-78
2021/05/16 01:28:44;;;;;;;;;80.00;65.75;;;;;15.35;79.73;100910.81;4935033;29;11675;-77
2021/05/16 01:31:39;;;;;;;;;74.00;59.50;;;;;15.54;78.29;100914.50;4934768;29;11678;-77
2021/05/16 01:34:35;;;;;;;;;75.25;58.00;;;;;15.75;77.14;100914.28;4935051;29;11677;-78
2021/05/16 01:37:31;;;;;;;;;86.50;69.75;;;;;15.61;76.98;100913.91;4933345;29;11672;-77
2021/05/16 01:40:27;;;;;;;;;50.75;35.50;;;;;15.48;77.42;100929.88;4933393;29;11802;-77
2021/05/16 01:43:23;;;;;;;;;74.25;56.50;;;;;15.44;77.45;100928.19;4896803;29;11653;-77
2021/05/16 01:46:18;;;;;;;;;82.25;70.75;;;;;15.59;76.63;100919.00;4895304;29;11837;-78
2021/05/16 01:49:14;;;;;;;;;86.00;69.50;;;;;15.48;76.67;100909.56;4896963;29;11672;-78
2021/05/16 01:52:10;;;;;;;;;85.25;75.00;;;;;15.68;75.76;100913.28;4896080;29;11709;-77
2021/05/16 01:55:07;;;;;;;;;82.25;69.00;;;;;15.66;75.32;100918.41;4919123;29;11681;-77
2021/05/16 01:58:04;;;;;;;;;85.75;73.25;;;;;15.58;75.35;100928.56;4896871;29;11715;-77
2021/05/16 02:01:00;;;;;;;;;83.25;67.00;;;;;15.40;76.09;100928.06;4908141;29;11740;-78
2021/05/16 02:03:57;;;;;;;;;124.75;104.25;;;;;15.26;76.81;100931.31;4896744;29;11719;-78
2021/05/16 02:06:55;;;;;;;;;124.67;105.67;;;;;15.49;75.77;100920.38;4897038;29;11823;-77
2021/05/16 02:09:51;;;;;;;;;125.33;104.67;;;;;15.26;76.79;100916.56;4896768;29;8856;-78
2021/05/16 02:12:47;;;;;;;;;114.50;100.00;;;;;15.35;76.69;100928.34;4931780;29;12439;-78
2021/05/16 02:15:43;;;;;;;;;124.00;96.25;;;;;15.26;77.16;100930.50;4936653;29;11726;-78
2021/05/16 02:18:39;;;;;;;;;165.33;131.00;;;;;15.20;77.25;100917.97;4936558;29;11906;-78
2021/05/16 02:21:34;;;;;;;;;172.00;140.67;;;;;15.25;76.97;100926.06;4938249;29;8971;-78
2021/05/16 02:24:30;;;;;;;;;175.00;135.00;;;;;15.26;76.51;100920.16;4934866;29;8861;-78
2021/05/16 02:27:01;;;;;;;;;182.33;151.00;;;;;15.42;76.00;100916.59;4919572;29;8916;-79
2021/05/16 02:29:57;;;;;;;;;201.67;170.00;;;;;15.36;75.69;100915.22;4918456;29;8891;-78
2021/05/16 02:32:53;;;;;;;;;204.50;159.25;;;;;15.42;75.33;100920.19;4914813;29;9589;-78
2021/05/16 02:35:48;;;;;;;;;213.50;176.25;;;;;15.34;75.30;100921.16;4919157;29;8877;-77
2021/05/16 02:38:44;;;;;;;;;215.25;167.50;;;;;15.39;75.40;100917.28;4900188;29;8856;-78
2021/05/16 02:41:39;;;;;;;;;223.75;172.00;;;;;15.02;76.89;100926.63;4913611;29;8862;-78
2021/05/16 02:44:35;;;;;;;;;218.50;175.75;;;;;14.82;78.18;100924.06;4937842;29;8914;-78
2021/05/16 02:47:31;;;;;;;;;142.50;104.50;;;;;14.82;78.77;100927.66;4937653;29;8947;-78
2021/05/16 02:50:26;;;;;;;;;194.67;159.33;;;;;14.81;79.02;100941.94;4921453;29;8864;-79
2021/05/16 02:53:23;;;;;;;;;213.50;173.00;;;;;15.02;78.34;100932.22;4918740;29;8869;-78
2021/05/16 02:56:19;;;;;;;;;206.75;177.25;;;;;15.12;78.06;100930.09;4918451;29;8865;-78
2021/05/16 02:59:14;;;;;;;;;205.50;170.00;;;;;15.21;77.78;100939.09;4918415;29;8877;-79
2021/05/16 03:02:11;;;;;;;;;197.75;163.25;;;;;15.39;77.68;100939.56;4917018;29;8862;-78
2021/05/16 03:05:08;;;;;;;;;191.00;162.00;;;;;15.57;77.26;100924.94;4919823;29;8976;-78
2021/05/16 03:08:03;;;;;;;;;188.33;150.33;;;;;15.70;76.90;100922.91;4920242;28;8888;-79
2021/05/16 03:10:59;;;;;;;;;85.50;77.00;;;;;15.75;77.78;100921.81;4934740;28;9654;-79
2021/05/16 03:13:55;;;;;;;;;82.75;68.00;;;;;15.59;78.66;100919.00;4937120;29;11663;-79
2021/05/16 03:16:34;;;;;;;;;85.00;74.75;;;;;15.72;78.28;100914.16;4922127;29;11830;-79
2021/05/16 03:19:29;;;;;;;;;100.00;89.75;;;;;15.93;77.56;100911.91;4937095;29;11837;-79
2021/05/16 03:22:25;;;;;;;;;104.75;93.75;;;;;16.05;76.97;100911.00;4936505;29;11692;-79
2021/05/16 03:24:54;;;;;;;;;108.50;95.25;;;;;16.12;77.11;100900.81;4937068;29;11798;-79
2021/05/16 03:27:50;;;;;;;;;117.25;96.00;;;;;16.37;76.29;100893.00;4916494;29;11715;-78
2021/05/16 03:30:45;;;;;;;;;121.75;107.00;;;;;16.59;74.91;100890.69;4917805;29;11706;-79
2021/05/16 03:33:41;;;;;;;;;132.00;116.67;;;;;16.67;74.54;100892.44;4919246;29;11718;-79
2021/05/16 03:36:36;;;;;;;;;139.67;128.67;;;;;16.87;73.75;100899.69;4918365;29;8872;-79
2021/05/16 03:39:32;;;;;;;;;131.00;117.33;;;;;16.87;72.61;100893.28;4920664;29;8855;-79
2021/05/16 03:42:27;;;;;;;;;155.33;128.00;;;;;17.05;72.57;100890.84;4936358;29;8831;-79
2021/05/16 03:44:56;;;;;;;;;128.67;111.33;;;;;17.12;73.63;100897.38;4936984;29;9632;-79
2021/05/16 03:47:51;;;;;;;;;133.00;112.75;;;;;17.13;74.22;100898.16;4937086;29;11845;-78
2021/05/16 03:50:47;;;;;;;;;116.00;100.75;;;;;17.16;74.51;100898.22;4936374;29;11703;-78
2021/05/16 03:53:42;;;;;;;;;112.50;99.50;;;;;17.38;74.31;100907.00;4921756;29;11696;-78
2021/05/16 03:56:38;;;;;;;;;111.00;96.00;;;;;17.65;73.75;100903.13;4952846;28;11791;-77
2021/05/16 03:59:34;;;;;;;;;83.25;65.00;;;;;17.74;72.40;100903.69;4920690;29;11776;-77
2021/05/16 04:02:30;;;;;;;;;82.25;66.75;;;;;17.84;71.30;100891.06;4920827;29;11682;-77
2021/05/16 04:05:25;;;;;;;;;79.75;70.75;;;;;18.13;70.29;100883.91;4946508;28;12510;-77
2021/05/16 04:08:21;;;;;;;;;67.25;54.50;;;;;18.26;69.29;100884.50;4929904;29;11732;-77
2021/05/16 04:11:16;;;;;;;;;34.67;31.67;;;;;18.42;63.16;100892.72;4917997;29;11877;-76
2021/05/16 04:14:12;;;;;;;;;24.33;24.33;;;;;18.67;61.31;100891.06;4899128;29;10000;-78
2021/05/16 04:17:08;;;;;;;;;23.00;23.00;;;;;18.96;59.86;100897.81;4901103;29;9222;-76
2021/05/16 04:20:04;;;;;;;;;25.00;24.25;;;;;19.26;61.08;100911.75;4916209;29;9781;-77
2021/05/16 04:23:00;;;;;;;;;33.67;32.33;;;;;19.42;60.75;100928.34;4916683;29;8857;-77
2021/05/16 04:25:55;;;;;;;;;18.75;17.50;;;;;19.39;58.03;100931.91;4911150;29;9746;-78
2021/05/16 04:28:51;;;;;;;;;20.00;19.75;;;;;19.68;57.95;100930.22;4920915;29;8856;-77
2021/05/16 04:31:33;;;;;;;;;54.00;43.75;;;;;19.89;59.75;100926.81;4898984;29;8871;-77
2021/05/16 04:34:28;;;;;;;;;25.00;23.25;;;;;20.12;58.95;100906.91;4899159;29;9427;-77
2021/05/16 04:37:24;;;;;;;;;20.25;20.25;;;;;20.23;57.10;100896.53;4913805;29;8865;-77
2021/05/16 04:40:19;;;;;;;;;18.75;18.50;;;;;20.47;56.32;100904.38;4910893;29;9767;-78
2021/05/16 04:43:15;;;;;;;;;15.75;15.75;;;;;20.51;54.41;100915.59;4919206;29;8849;-72
2021/05/16 04:45:56;;;;;;;;;42.67;37.33;;;;;20.85;57.70;100918.16;4916307;29;8877;-72
2021/05/16 04:48:39;;;;;;;;;62.75;50.75;;;;;21.14;61.06;100922.69;4914870;29;10001;-72
2021/05/16 04:51:38;;;;;;;;;54.00;44.00;;;;;21.31;56.97;100926.78;4919241;29;10206;-71
2021/05/16 04:54:33;;;;;;;;;15.00;15.00;;;;;21.38;53.49;100927.59;4915101;29;10227;-72
2021/05/16 04:57:03;;;;;;;;;17.50;17.50;;;;;21.59;54.37;100926.03;4914022;29;9003;-72
2021/05/16 04:59:48;;;;;;;;;11.00;11.00;;;;;21.48;52.49;100923.22;4915487;29;8898;-72
2021/05/16 05:02:46;;;;;;;;;15.50;15.50;;;;;21.62;52.53;100922.41;4910661;29;8853;-72
2021/05/16 05:05:42;;;;;;;;;36.75;31.00;;;;;21.96;54.89;100913.56;4911083;29;9007;-71
2021/05/16 05:08:38;;;;;;;;;16.25;15.50;;;;;22.05;51.37;100911.13;4913190;29;8877;-71
2021/05/16 05:11:06;;;;;;;;;10.50;10.25;;;;;22.21;50.93;100914.34;4928064;29;8857;-72
2021/05/16 05:14:02;;;;;;;;;5.75;5.75;;;;;22.56;52.09;100918.31;4904031;29;8902;-71
2021/05/16 05:16:57;;;;;;;;;13.75;13.75;;;;;22.75;50.83;100915.00;4902916;29;8839;-71
2021/05/16 05:19:53;;;;;;;;;16.50;16.50;;;;;22.91;50.98;100914.56;4900584;29;8862;-71
2021/05/16 05:22:21;;;;;;;;;15.00;15.00;;;;;23.15;52.04;100924.13;4913111;29;8886;-71
2021/05/16 05:25:16;;;;;;;;;17.50;17.50;;;;;23.39;51.05;100914.72;4913766;29;8848;-71
2021/05/16 05:27:58;;;;;;;;;35.25;32.00;;;;;23.48;51.52;100914.25;4898879;29;8877;-71
2021/05/16 05:30:53;;;;;;;;;11.00;11.00;;;;;23.63;49.78;100914.97;4905628;29;9577;-71
2021/05/16 05:33:22;;;;;;;;;10.00;10.00;;;;;23.72;47.68;100918.13;4915490;29;8851;-71
2021/05/16 05:35:52;;;;;;;;;8.75;8.75;;;;;23.58;47.52;100919.81;4915290;29;8875;-72
2021/05/16 05:38:21;;;;;;;;;7.60;7.60;;;;;23.72;46.99;100912.47;4907622;29;8891;-71
2021/05/16 05:41:04;;;;;;;;;9.00;9.00;;;;;23.89;46.68;100913.56;4916569;29;8870;-72
2021/05/16 05:44:00;;;;;;;;;57.50;46.50;;;;;24.34;47.71;100914.34;4915164;29;8863;-72
2021/05/16 05:46:55;;;;;;;;;15.75;15.50;;;;;24.53;46.70;100921.41;4917060;29;8867;-72
2021/05/16 05:49:54;;;;;;;;;40.25;36.00;;;;;24.75;46.21;100913.47;4910035;29;8912;-71
2021/05/16 05:52:50;;;;;;;;;72.00;60.67;;;;;24.84;45.16;100923.03;4919941;29;9402;-72
2021/05/16 05:55:45;;;;;;;;;71.00;62.50;;;;;25.09;45.93;100922.78;4918116;29;9372;-71
2021/05/16 05:58:41;;;;;;;;;7.00;7.00;;;;;25.05;44.44;100918.38;4920267;29;10055;-72
2021/05/16 06:01:36;;;;;;;;;48.75;41.75;;;;;25.06;45.50;100908.66;4918916;29;8858;-72
2021/05/16 06:04:32;;;;;;;;;7.00;6.80;;;;;25.24;44.31;100912.06;4920802;29;9552;-71
2021/05/16 06:07:28;;;;;;;;;21.75;21.75;;;;;25.39;44.15;100906.97;4918619;29;8851;-71
2021/05/16 06:10:24;;;;;;;;;12.20;12.20;;;;;25.63;43.48;100894.47;4904409;29;8861;-72
2021/05/16 06:13:08;;;;;;;;;12.00;12.00;;;;;25.92;42.74;100894.81;4898357;29;9055;-70
2021/05/16 06:16:04;;;;;;;;;4.40;4.40;;;;;25.94;41.41;100900.03;4913774;29;9613;-71
2021/05/16 06:19:00;;;;;;;;;16.00;13.00;;;;;25.99;42.99;100891.03;4899658;29;8853;-71
2021/05/16 06:21:56;;;;;;;;;3.80;3.80;;;;;26.06;41.16;100882.41;4878903;29;8850;-72
2021/05/16 06:24:24;;;;;;;;;16.20;16.20;;;;;26.19;41.55;100877.72;4887603;29;8887;-72
2021/05/16 06:27:20;;;;;;;;;11.60;11.60;;;;;26.47;41.78;100884.91;4863495;29;8870;-71
2021/05/16 06:29:47;;;;;;;;;10.60;10.60;;;;;26.68;41.01;100880.00;4897605;29;8940;-71
2021/05/16 06:32:43;;;;;;;;;18.60;18.60;;;;;26.66;41.72;100877.59;4900091;29;8964;-71
2021/05/16 06:35:38;;;;;;;;;30.40;29.20;;;;;26.91;40.61;100876.25;4898028;29;8887;-71
2021/05/16 06:38:34;;;;;;;;;3.00;3.00;;;;;26.70;39.91;100867.00;4905161;29;8858;-70
2021/05/16 06:41:30;;;;;;;;;8.20;8.20;;;;;26.84;39.77;100863.88;4909806;29;8888;-70
2021/05/16 06:44:27;;;;;;;;;5.60;5.60;;;;;26.98;40.08;100854.22;4905113;29;8873;-71
2021/05/16 06:46:57;;;;;;;;;5.60;5.60;;;;;26.96;39.90;100859.53;4884092;29;8853;-71
2021/05/16 06:49:53;;;;;;;;;9.00;9.00;;;;;27.20;39.83;100863.06;4914553;29;8859;-71
2021/05/16 06:52:49;;;;;;;;;3.40;3.40;;;;;27.12;39.06;100850.28;4900479;29;8863;-71
2021/05/16 06:55:44;;;;;;;;;1.00;1.00;;;;;26.99;38.76;100847.31;4899064;29;8867;-71
2021/05/16 06:58:41;;;;;;;;;3.80;3.80;;;;;27.49;38.99;100848.97;4904984;29;8858;-71
2021/05/16 07:01:37;;;;;;;;;4.00;4.00;;;;;27.69;38.12;100846.09;4913655;29;8863;-73
2021/05/16 07:04:32;;;;;;;;;2.40;2.40;;;;;27.39;37.85;100856.53;4918025;29;8863;-73
2021/05/16 07:07:28;;;;;;;;;4.00;4.00;;;;;27.70;36.11;100848.47;4917620;29;8973;-73
2021/05/16 07:10:00;;;;;;;;;3.20;3.20;;;;;27.78;35.07;100843.41;4918766;29;8863;-72
2021/05/16 07:12:28;;;;;;;;;9.60;9.40;;;;;27.96;36.72;100855.09;4918747;29;8875;-72
2021/05/16 07:14:56;;;;;;;;;10.80;10.80;;;;;28.14;35.71;100850.97;4918659;29;8863;-72
2021/05/16 07:17:24;;;;;;;;;4.40;4.40;;;;;28.13;34.91;100850.16;4918508;29;8870;-72
2021/05/16 07:19:53;;;;;;;;;7.80;6.20;;;;;28.29;34.60;100839.97;4901815;29;8875;-73
2021/05/16 07:22:20;;;;;;;;;4.00;4.00;;;;;28.23;34.83;100846.25;4918284;29;9552;-72
2021/05/16 07:24:49;;;;;;;;;1.40;1.40;;;;;28.41;33.92;100845.75;4918655;29;8968;-73
2021/05/16 07:27:17;;;;;;;;;1.00;1.00;;;;;28.15;33.86;100832.69;4918690;29;8885;-72
2021/05/16 07:29:45;;;;;;;;;3.20;3.20;;;;;27.79;34.46;100839.31;4902081;29;8983;-71
2021/05/16 07:32:14;;;;;;;;;0.60;0.60;;;;;27.83;33.32;100827.84;4918327;29;8867;-72
2021/05/16 07:34:41;;;;;;;;;1.40;1.40;;;;;28.02;33.85;100831.81;4918184;29;8875;-73
2021/05/16 07:37:10;;;;;;;;;0.60;0.60;;;;;28.19;34.08;100822.00;4901897;29;8870;-72
2021/05/16 07:39:38;;;;;;;;;1.00;1.00;;;;;28.59;33.78;100827.34;4893591;29;8884;-72
2021/05/16 07:42:07;;;;;;;;;2.00;2.00;;;;;29.02;33.16;100832.56;4898923;29;8873;-72
2021/05/16 07:44:35;;;;;;;;;2.40;2.40;;;;;28.88;33.33;100841.53;4882695;29;8872;-72
2021/05/16 07:47:03;;;;;;;;;1.00;1.00;;;;;28.67;33.21;100828.72;4883166;29;9670;-71
2021/05/16 07:49:31;;;;;;;;;1.80;1.80;;;;;28.60;33.16;100834.63;4899444;29;8877;-71
2021/05/16 07:51:59;;;;;;;;;3.40;3.40;;;;;28.75;33.58;100821.56;4882611;29;8916;-72
2021/05/16 07:54:29;;;;;;;;;2.00;2.00;;;;;28.96;33.25;100818.09;4899084;29;8964;-72
2021/05/16 07:56:58;;;;;;;;;2.20;2.20;;;;;28.68;33.88;100828.31;4898948;29;8877;-72
2021/05/16 07:59:26;;;;;;;;;1.20;1.20;;;;;28.91;33.20;100821.53;4882564;29;8865;-72
2021/05/16 08:01:54;;;;;;;;;2.80;2.80;;;;;29.23;32.56;100814.00;4898642;29;8911;-72
2021/05/16 08:04:23;;;;;;;;;2.00;2.00;;;;;29.19;32.82;100814.13;4898992;29;8885;-72
2021/05/16 08:06:50;;;;;;;;;2.00;2.00;;;;;28.85;33.19;100808.28;4898622;29;8849;-72
2021/05/16 08:09:19;;;;;;;;;4.80;4.80;;;;;29.05;33.07;100800.34;4898510;29;8907;-73
2021/05/16 08:11:47;;;;;;;;;6.20;6.20;;;;;29.04;32.85;100793.06;4897569;29;8871;-72
2021/05/16 08:14:16;;;;;;;;;5.60;5.60;;;;;28.97;34.27;100796.13;4917701;29;8871;-72
2021/05/16 08:16:47;;;;;;;;;6.20;6.20;;;;;28.81;33.22;100794.16;4917619;29;8889;-72
2021/05/16 08:19:15;;;;;;;;;4.20;4.20;;;;;28.71;33.51;100801.00;4917657;29;8886;-72
2021/05/16 08:21:45;;;;;;;;;2.00;2.00;;;;;28.86;33.41;100804.19;4900887;29;8859;-73
2021/05/16 08:24:14;;;;;;;;;2.20;2.20;;;;;29.37;33.22;100802.16;4917335;29;8905;-72
2021/05/16 08:26:42;;;;;;;;;2.20;2.20;;;;;29.61;32.70;100797.69;4917145;29;8866;-73
2021/05/16 08:29:10;;;;;;;;;3.20;3.20;;;;;29.95;31.96;100798.13;4900990;29;8875;-72
2021/05/16 08:31:38;;;;;;;;;3.40;3.20;;;;;30.21;31.60;100790.28;4900637;29;8974;-74
2021/05/16 08:34:08;;;;;;;;;4.00;4.00;;;;;30.06;31.69;100793.66;4900985;29;8947;-73
2021/05/16 08:36:39;;;;;;;;;2.00;2.00;;;;;29.79;31.92;100790.56;4917488;29;8867;-73
2021/05/16 08:39:08;;;;;;;;;9.40;7.60;;;;;30.18;32.10;100780.59;4899996;29;8958;-72
2021/05/16 08:41:36;;;;;;;;;3.40;3.40;;;;;29.88;31.06;100776.38;4917222;29;8859;-72
2021/05/16 08:44:05;;;;;;;;;2.40;2.40;;;;;30.33;31.95;100772.28;4917112;29;9625;-73
2021/05/16 08:46:33;;;;;;;;;3.60;3.60;;;;;30.23;31.46;100768.59;4900197;29;8926;-72
2021/05/16 08:49:01;;;;;;;;;3.80;3.80;;;;;30.43;31.08;100771.88;4899643;29;8867;-73
2021/05/16 08:51:30;;;;;;;;;1.60;1.60;;;;;30.41;31.26;100767.91;4900400;29;9481;-73
2021/05/16 08:53:59;;;;;;;;;1.60;1.60;;;;;29.98;32.24;100758.09;4900526;29;8925;-72
2021/05/16 08:56:26;;;;;;;;;8.80;8.80;;;;;30.39;31.12;100761.88;4916836;29;8875;-72
2021/05/16 08:58:54;;;;;;;;;10.00;10.00;;;;;30.48;30.65;100764.00;4916547;29;8856;-72
2021/05/16 09:01:25;;;;;;;;;2.00;2.00;;;;;30.89;30.57;100762.78;4916880;29;8885;-73
2021/05/16 09:03:53;;;;;;;;;5.80;5.80;;;;;30.81;29.57;100748.00;4917048;29;8878;-73
2021/05/16 09:06:33;;;;;;;;;5.40;5.40;;;;;30.33;30.79;100752.31;4917371;29;9697;-72
2021/05/16 09:09:33;;;;;;;;;8.40;8.40;;;;;30.82;28.83;100748.78;4916524;29;8969;-72
2021/05/16 09:12:05;;;;;;;;;3.00;3.00;;;;;30.92;29.67;100744.72;4899538;29;8849;-73
2021/05/16 09:14:51;;;;;;;;;5.60;5.60;;;;;31.02;28.65;100736.97;4881596;29;8865;-72
2021/05/16 09:17:39;;;;;;;;;2.20;2.20;;;;;31.31;28.19;100733.75;4897929;29;9674;-75
2021/05/16 09:20:11;;;;;;;;;5.60;5.60;;;;;31.30;28.50;100724.38;4898181;29;8916;-73
2021/05/16 09:22:41;;;;;;;;;4.00;4.00;;;;;31.12;28.94;100727.16;4887260;29;8846;-72
2021/05/16 09:25:31;;;;;;;;;7.20;7.20;;;;;31.50;29.54;100718.19;4904310;29;8861;-72
2021/05/16 09:28:05;;;;;;;;;5.20;4.60;;;;;31.69;28.88;100710.44;4904138;29;9852;-73
2021/05/16 09:30:34;;;;;;;;;4.00;4.00;;;;;32.05;28.05;100723.91;4904187;29;8962;-75
2021/05/16 09:33:12;;;;;;;;;9.20;9.20;;;;;32.39;28.46;100711.31;4904076;29;9607;-74
2021/05/16 09:35:47;;;;;;;;;17.40;13.40;;;;;32.11;28.05;100716.28;4887242;29;8866;-73
2021/05/16 09:38:21;;;;;;;;;7.80;7.80;;;;;31.97;28.14;100705.50;4903994;29;8853;-73
2021/05/16 09:40:55;;;;;;;;;5.00;5.00;;;;;32.19;28.22;100714.66;4887559;29;8869;-73
2021/05/16 09:43:28;;;;;;;;;3.00;3.00;;;;;32.30;26.96;100717.84;4904034;29;8984;-73
2021/05/16 09:46:01;;;;;;;;;3.40;3.40;;;;;32.47;26.43;100709.69;4887274;29;9039;-74
2021/05/16 09:48:31;;;;;;;;;7.00;4.00;;;;;32.75;26.57;100706.72;4887359;29;8956;-72
2021/05/16 09:51:19;;;;;;;;;6.00;6.00;;;;;32.50;26.23;100705.06;4903819;29;8877;-72
2021/05/16 09:54:04;;;;;;;;;1.20;1.20;;;;;32.30;24.89;100694.94;4887659;29;8854;-73
2021/05/16 09:56:37;;;;;;;;;5.60;5.60;;;;;31.91;26.97;100696.00;4887046;29;8977;-73
2021/05/16 09:59:10;;;;;;;;;5.60;5.60;;;;;32.56;26.66;100692.47;4887698;29;8869;-74
2021/05/16 10:01:39;;;;;;;;;4.00;4.00;;;;;32.57;26.80;100678.97;4903542;29;8873;-74
2021/05/16 10:04:08;;;;;;;;;7.60;7.20;;;;;32.54;26.87;100691.38;4903875;29;8888;-72
2021/05/16 10:06:39;;;;;;;;;2.20;2.20;;;;;32.54;25.72;100686.44;4887403;29;8853;-72
2021/05/16 10:09:10;;;;;;;;;2.40;2.40;;;;;32.55;26.18;100685.16;4886873;29;8909;-72
2021/05/16 10:11:39;;;;;;;;;1.40;1.40;;;;;32.88;25.77;100682.31;4903608;29;8908;-73
2021/05/16 10:14:13;;;;;;;;;2.60;2.60;;;;;32.81;25.95;100676.91;4903931;29;8960;-73
2021/05/16 10:16:49;;;;;;;;;10.40;7.20;;;;;32.88;26.85;100670.88;4917441;29;8901;-73
2021/05/16 10:19:44;;;;;;;;;4.40;4.40;;;;;33.40;25.60;100664.97;4887204;29;8869;-73
2021/05/16 10:22:15;;;;;;;;;6.00;6.00;;;;;33.20;25.93;100668.41;4884311;29;8957;-72
2021/05/16 10:24:46;;;;;;;;;2.60;2.60;;;;;33.07;26.22;100665.03;4903350;29;8873;-72
2021/05/16 10:27:21;;;;;;;;;5.40;5.40;;;;;33.50;26.50;100657.06;4902472;29;8876;-73
2021/05/16 10:30:00;;;;;;;;;9.80;5.20;;;;;33.65;25.02;100652.94;4917873;29;8865;-72
2021/05/16 10:32:37;;;;;;;;;0.00;0.00;;;;;33.76;25.37;100651.59;4885899;29;8885;-73
2021/05/16 10:35:06;;;;;;;;;3.00;3.00;;;;;34.00;25.26;100650.25;4900655;29;8881;-73
2021/05/16 10:37:38;;;;;;;;;2.00;2.00;;;;;33.86;24.68;100647.34;4899461;29;8885;-72
2021/05/16 10:40:24;;;;;;;;;3.40;3.40;;;;;34.05;25.31;100643.03;4900540;29;8889;-73
2021/05/16 10:43:12;;;;;;;;;2.80;2.80;;;;;34.15;24.91;100643.72;4899183;29;8869;-73
2021/05/16 10:45:41;;;;;;;;;3.60;3.60;;;;;34.52;23.08;100630.50;4884669;29;8881;-73
2021/05/16 10:48:15;;;;;;;;;1.00;1.00;;;;;33.27;22.80;100630.00;4914811;29;9616;-72
2021/05/16 10:50:52;;;;;;;;;3.00;3.00;;;;;33.90;23.71;100622.94;4899044;29;8955;-72
2021/05/16 10:53:27;;;;;;;;;19.80;14.60;;;;;33.97;23.71;100616.00;4899176;29;8881;-73
2021/05/16 10:56:01;;;;;;;;;3.00;3.00;;;;;34.58;22.57;100615.44;4900309;29;8877;-73
2021/05/16 10:58:32;;;;;;;;;1.40;1.40;;;;;34.03;24.21;100604.63;4914760;29;8873;-73
2021/05/16 11:01:03;;;;;;;;;4.00;4.00;;;;;33.61;24.09;100606.50;4914051;29;9600;-73
2021/05/16 11:03:45;;;;;;;;;5.00;5.00;;;;;33.09;24.92;100605.16;4900124;29;9080;-73
2021/05/16 11:06:22;;;;;;;;;4.60;4.60;;;;;33.49;25.14;100598.16;4883783;29;8915;-73
2021/05/16 11:08:50;;;;;;;;;2.60;2.60;;;;;33.02;24.91;100591.22;4900903;29;8885;-74
2021/05/16 11:11:40;;;;;;;;;1.60;1.60;;;;;32.83;24.64;100593.41;4925708;29;9597;-72
2021/05/16 11:14:16;;;;;;;;;2.00;2.00;;;;;32.82;25.52;100594.66;4918404;29;8985;-71
2021/05/16 11:16:46;;;;;;;;;4.20;4.20;;;;;33.17;25.53;100595.72;4918734;29;8961;-71
2021/05/16 11:19:14;;;;;;;;;2.20;2.20;;;;;33.05;24.84;100590.22;4918632;29;8867;-71
2021/05/16 11:21:42;;;;;;;;;3.00;3.00;;;;;33.44;25.07;100576.72;4918270;29;8937;-71
2021/05/16 11:24:10;;;;;;;;;2.40;2.40;;;;;33.64;25.61;100576.81;4918148;29;8855;-71
2021/05/16 11:26:38;;;;;;;;;4.00;4.00;;;;;33.18;24.61;100570.72;4918423;29;9447;-71
2021/05/16 11:29:06;;;;;;;;;3.00;3.00;;;;;33.18;25.71;100574.38;4901641;29;8941;-71
2021/05/16 11:31:35;;;;;;;;;2.60;2.60;;;;;33.32;25.13;100566.28;4918268;29;9627;-70
2021/05/16 11:34:06;;;;;;;;;3.00;3.00;;;;;33.85;25.09;100566.25;4900484;29;8855;-74
2021/05/16 11:36:36;;;;;;;;;3.20;3.20;;;;;33.75;24.58;100556.16;4915443;29;8851;-74
2021/05/16 11:39:08;;;;;;;;;2.80;2.80;;;;;33.59;25.25;100559.53;4901057;29;8954;-73
2021/05/16 11:41:43;;;;;;;;;4.00;4.00;;;;;33.65;24.18;100549.72;4916177;29;8961;-74
2021/05/16 11:44:21;;;;;;;;;2.60;2.60;;;;;33.73;24.64;100544.38;4897469;29;8888;-75
2021/05/16 11:47:34;;;;;;;;;2.00;2.00;;;;;33.05;25.04;100535.81;4931668;29;8967;-75
2021/05/16 11:50:10;;;;;;;;;2.60;2.60;;;;;32.67;27.08;100534.50;4937717;29;8853;-74
2021/05/16 11:53:02;;;;;;;;;6.20;4.60;;;;;32.42;25.77;100538.63;4898639;29;8878;-74
2021/05/16 11:56:10;;;;;;;;;2.40;2.40;;;;;32.36;26.37;100523.44;4901887;29;8891;-75
2021/05/16 11:58:59;;;;;;;;;4.20;4.20;;;;;32.47;26.63;100520.00;4903201;29;8879;-75
2021/05/16 12:01:43;;;;;;;;;3.40;3.40;;;;;32.64;26.04;100509.69;4927832;29;8874;-76
2021/05/16 12:04:16;;;;;;;;;6.00;6.00;;;;;32.58;24.79;100506.72;4917255;29;8859;-73
2021/05/16 12:06:58;;;;;;;;;3.40;3.40;;;;;32.43;25.18;100505.88;4914684;29;8877;-75
2021/05/16 12:09:53;;;;;;;;;3.00;3.00;;;;;32.43;25.12;100503.00;4887007;29;8849;-74
2021/05/16 12:12:24;;;;;;;;;3.80;3.80;;;;;32.47;25.89;100499.97;4881492;29;8859;-75
2021/05/16 12:15:24;;;;;;;;;4.00;4.00;;;;;32.69;26.68;100494.72;4879788;29;8867;-74
2021/05/16 12:18:24;;;;;;;;;3.60;3.60;;;;;33.04;25.53;100491.25;4882378;29;8990;-75
2021/05/16 12:21:21;;;;;;;;;7.80;7.60;;;;;33.59;24.59;100493.59;4894058;29;8878;-75
2021/05/16 12:24:22;;;;;;;;;3.00;3.00;;;;;34.07;25.09;100479.00;4909891;29;8857;-76
2021/05/16 12:27:19;;;;;;;;;5.00;5.00;;;;;34.41;24.47;100480.25;4897841;29;8869;-74
2021/05/16 12:30:15;;;;;;;;;3.20;3.20;;;;;33.38;24.56;100479.16;4886522;29;8857;-73
2021/05/16 12:33:12;;;;;;;;;5.00;5.00;;;;;33.18;24.54;100473.28;4885654;29;8919;-75
2021/05/16 12:35:45;;;;;;;;;3.20;3.20;;;;;33.23;25.07;100461.16;4913576;29;8861;-76
2021/05/16 12:38:52;;;;;;;;;3.00;3.00;;;;;32.89;24.55;100451.94;4897519;29;9661;-74
2021/05/16 12:41:28;;;;;;;;;4.00;4.00;;;;;33.20;24.92;100442.06;4869555;29;8902;-75